sensor_id;sensor_type;location;lat;lon;timestamp;P1;durP1;ratioP1;P2;durP2;ratioP2
48487;SDS011;34289;48.572;13.378;2023-02-22T00:02:15;24.75;;;10.07;;
48487;SDS011;34289;48.572;13.378;2023-02-22T00:04:51;30.42;;;10.18;;
48487;SDS011;34289;48.572;13.378;2023-02-22T00:07:17;16.40;;;8.98;;
48487;SDS011;34289;48.572;13.378;2023-02-22T00:09:45;15.57;;;8.93;;
48487;SDS011;34289;48.572;13.378;2023-02-22T00:12:11;15.55;;;9.35;;
48487;SDS011;34289;48.572;13.378;2023-02-22T00:14:36;14.38;;;9.68;;
48487;SDS011;34289;48.572;13.378;2023-02-22T00:17:02;15.50;;;9.27;;
48487;SDS011;34289;48.572;13.378;2023-02-22T00:19:27;10.35;;;8.60;;
48487;SDS011;34289;48.572;13.378;2023-02-22T00:21:54;16.17;;;9.40;;
48487;SDS011;34289;48.572;13.378;2023-02-22T00:24:22;10.77;;;8.30;;
48487;SDS011;34289;48.572;13.378;2023-02-22T00:26:51;18.13;;;9.70;;
48487;SDS011;34289;48.572;13.378;2023-02-22T00:29:22;11.60;;;9.13;;
48487;SDS011;34289;48.572;13.378;2023-02-22T00:31:48;27.00;;;9.85;;
48487;SDS011;34289;48.572;13.378;2023-02-22T00:34:14;15.55;;;9.30;;
48487;SDS011;34289;48.572;13.378;2023-02-22T00:36:46;13.98;;;9.25;;
48487;SDS011;34289;48.572;13.378;2023-02-22T00:39:13;16.65;;;9.00;;
48487;SDS011;34289;48.572;13.378;2023-02-22T00:41:38;17.75;;;9.57;;
48487;SDS011;34289;48.572;13.378;2023-02-22T00:44:04;15.77;;;10.40;;
48487;SDS011;34289;48.572;13.378;2023-02-22T00:46:30;15.00;;;9.20;;
48487;SDS011;34289;48.572;13.378;2023-02-22T00:48:55;12.93;;;9.55;;
48487;SDS011;34289;48.572;13.378;2023-02-22T00:51:23;13.70;;;8.65;;
48487;SDS011;34289;48.572;13.378;2023-02-22T00:53:50;11.10;;;8.48;;
48487;SDS011;34289;48.572;13.378;2023-02-22T00:56:15;11.30;;;8.15;;
48487;SDS011;34289;48.572;13.378;2023-02-22T00:58:41;11.50;;;8.65;;
48487;SDS011;34289;48.572;13.378;2023-02-22T01:01:08;10.93;;;8.77;;
48487;SDS011;34289;48.572;13.378;2023-02-22T01:03:34;12.82;;;8.88;;
48487;SDS011;34289;48.572;13.378;2023-02-22T01:05:59;10.18;;;8.07;;
48487;SDS011;34289;48.572;13.378;2023-02-22T01:08:25;28.25;;;8.10;;
48487;SDS011;34289;48.572;13.378;2023-02-22T01:10:50;33.75;;;9.35;;
48487;SDS011;34289;48.572;13.378;2023-02-22T01:13:16;13.90;;;8.73;;
48487;SDS011;34289;48.572;13.378;2023-02-22T01:15:43;16.00;;;9.85;;
48487;SDS011;34289;48.572;13.378;2023-02-22T01:18:10;19.73;;;10.68;;
48487;SDS011;34289;48.572;13.378;2023-02-22T01:20:36;31.73;;;10.27;;
48487;SDS011;34289;48.572;13.378;2023-02-22T01:23:03;33.03;;;10.25;;
48487;SDS011;34289;48.572;13.378;2023-02-22T01:25:32;21.98;;;10.10;;
48487;SDS011;34289;48.572;13.378;2023-02-22T01:27:59;15.07;;;9.68;;
48487;SDS011;34289;48.572;13.378;2023-02-22T01:30:27;38.50;;;10.52;;
48487;SDS011;34289;48.572;13.378;2023-02-22T01:32:56;38.22;;;10.02;;
48487;SDS011;34289;48.572;13.378;2023-02-22T01:35:23;43.00;;;9.90;;
48487;SDS011;34289;48.572;13.378;2023-02-22T01:37:52;43.75;;;10.30;;
48487;SDS011;34289;48.572;13.378;2023-02-22T01:40:22;40.95;;;11.27;;
48487;SDS011;34289;48.572;13.378;2023-02-22T01:42:57;44.53;;;10.40;;
48487;SDS011;34289;48.572;13.378;2023-02-22T01:48:31;58.42;;;11.18;;
48487;SDS011;34289;48.572;13.378;2023-02-22T01:51:16;46.67;;;9.52;;
48487;SDS011;34289;48.572;13.378;2023-02-22T01:53:54;44.97;;;10.45;;
48487;SDS011;34289;48.572;13.378;2023-02-22T01:56:26;47.72;;;10.25;;
48487;SDS011;34289;48.572;13.378;2023-02-22T01:58:56;41.00;;;9.57;;
48487;SDS011;34289;48.572;13.378;2023-02-22T02:01:31;38.75;;;10.52;;
48487;SDS011;34289;48.572;13.378;2023-02-22T02:03:58;35.08;;;10.30;;
48487;SDS011;34289;48.572;13.378;2023-02-22T02:06:29;37.35;;;10.30;;
48487;SDS011;34289;48.572;13.378;2023-02-22T02:11:54;35.53;;;8.98;;
48487;SDS011;34289;48.572;13.378;2023-02-22T02:14:24;32.15;;;9.48;;
48487;SDS011;34289;48.572;13.378;2023-02-22T02:16:51;36.70;;;9.45;;
48487;SDS011;34289;48.572;13.378;2023-02-22T02:27:24;30.83;;;9.75;;
48487;SDS011;34289;48.572;13.378;2023-02-22T02:30:05;28.65;;;9.27;;
48487;SDS011;34289;48.572;13.378;2023-02-22T02:32:53;16.33;;;9.20;;
48487;SDS011;34289;48.572;13.378;2023-02-22T02:38:41;24.83;;;8.85;;
48487;SDS011;34289;48.572;13.378;2023-02-22T02:41:12;29.08;;;8.50;;
48487;SDS011;34289;48.572;13.378;2023-02-22T02:46:24;15.85;;;8.73;;
48487;SDS011;34289;48.572;13.378;2023-02-22T02:48:58;22.17;;;11.80;;
48487;SDS011;34289;48.572;13.378;2023-02-22T02:51:32;25.50;;;9.00;;
48487;SDS011;34289;48.572;13.378;2023-02-22T02:54:01;22.83;;;10.05;;
48487;SDS011;34289;48.572;13.378;2023-02-22T02:56:28;23.98;;;9.50;;
48487;SDS011;34289;48.572;13.378;2023-02-22T02:58:55;21.75;;;8.68;;
48487;SDS011;34289;48.572;13.378;2023-02-22T03:12:17;10.35;;;8.68;;
48487;SDS011;34289;48.572;13.378;2023-02-22T03:15:02;11.27;;;8.07;;
48487;SDS011;34289;48.572;13.378;2023-02-22T03:20:24;11.07;;;8.18;;
48487;SDS011;34289;48.572;13.378;2023-02-22T03:26:02;15.07;;;8.77;;
48487;SDS011;34289;48.572;13.378;2023-02-22T03:28:31;22.02;;;10.40;;
48487;SDS011;34289;48.572;13.378;2023-02-22T03:31:00;17.27;;;9.85;;
48487;SDS011;34289;48.572;13.378;2023-02-22T03:33:39;20.75;;;9.32;;
48487;SDS011;34289;48.572;13.378;2023-02-22T03:36:23;21.25;;;8.45;;
48487;SDS011;34289;48.572;13.378;2023-02-22T03:38:57;21.80;;;9.57;;
48487;SDS011;34289;48.572;13.378;2023-02-22T03:41:24;24.48;;;8.63;;
48487;SDS011;34289;48.572;13.378;2023-02-22T03:44:03;19.23;;;9.73;;
48487;SDS011;34289;48.572;13.378;2023-02-22T03:46:32;27.48;;;10.38;;
48487;SDS011;34289;48.572;13.378;2023-02-22T03:51:31;14.20;;;9.70;;
48487;SDS011;34289;48.572;13.378;2023-02-22T03:53:57;14.80;;;10.57;;
48487;SDS011;34289;48.572;13.378;2023-02-22T03:56:25;17.48;;;9.88;;
48487;SDS011;34289;48.572;13.378;2023-02-22T03:58:59;17.67;;;11.48;;
48487;SDS011;34289;48.572;13.378;2023-02-22T04:01:33;18.95;;;9.60;;
48487;SDS011;34289;48.572;13.378;2023-02-22T04:03:59;13.40;;;10.23;;
48487;SDS011;34289;48.572;13.378;2023-02-22T04:06:25;17.95;;;11.77;;
48487;SDS011;34289;48.572;13.378;2023-02-22T04:08:51;21.40;;;10.88;;
48487;SDS011;34289;48.572;13.378;2023-02-22T04:11:17;22.15;;;11.63;;
48487;SDS011;34289;48.572;13.378;2023-02-22T04:13:42;37.13;;;12.05;;
48487;SDS011;34289;48.572;13.378;2023-02-22T04:16:08;36.00;;;11.80;;
48487;SDS011;34289;48.572;13.378;2023-02-22T04:18:34;47.53;;;12.13;;
48487;SDS011;34289;48.572;13.378;2023-02-22T04:21:00;40.35;;;13.50;;
48487;SDS011;34289;48.572;13.378;2023-02-22T04:23:26;48.38;;;13.02;;
48487;SDS011;34289;48.572;13.378;2023-02-22T04:25:52;60.63;;;14.65;;
48487;SDS011;34289;48.572;13.378;2023-02-22T04:28:18;43.55;;;15.18;;
48487;SDS011;34289;48.572;13.378;2023-02-22T04:30:44;48.72;;;14.50;;
48487;SDS011;34289;48.572;13.378;2023-02-22T04:33:10;37.13;;;12.70;;
48487;SDS011;34289;48.572;13.378;2023-02-22T04:35:35;33.38;;;12.75;;
48487;SDS011;34289;48.572;13.378;2023-02-22T04:38:01;39.92;;;12.15;;
48487;SDS011;34289;48.572;13.378;2023-02-22T04:40:28;51.47;;;12.90;;
48487;SDS011;34289;48.572;13.378;2023-02-22T04:42:54;55.28;;;12.45;;
48487;SDS011;34289;48.572;13.378;2023-02-22T04:45:20;26.30;;;10.50;;
48487;SDS011;34289;48.572;13.378;2023-02-22T04:47:45;47.08;;;11.55;;
48487;SDS011;34289;48.572;13.378;2023-02-22T04:50:11;36.50;;;11.57;;
48487;SDS011;34289;48.572;13.378;2023-02-22T04:52:37;29.10;;;11.35;;
48487;SDS011;34289;48.572;13.378;2023-02-22T04:55:03;35.42;;;11.77;;
48487;SDS011;34289;48.572;13.378;2023-02-22T04:57:30;37.22;;;11.35;;
48487;SDS011;34289;48.572;13.378;2023-02-22T04:59:55;21.65;;;11.73;;
48487;SDS011;34289;48.572;13.378;2023-02-22T05:02:21;31.25;;;13.60;;
48487;SDS011;34289;48.572;13.378;2023-02-22T05:04:47;27.15;;;14.07;;
48487;SDS011;34289;48.572;13.378;2023-02-22T05:07:12;39.65;;;12.68;;
48487;SDS011;34289;48.572;13.378;2023-02-22T05:09:38;23.40;;;11.85;;
48487;SDS011;34289;48.572;13.378;2023-02-22T05:12:03;46.72;;;13.75;;
48487;SDS011;34289;48.572;13.378;2023-02-22T05:14:29;31.90;;;11.23;;
48487;SDS011;34289;48.572;13.378;2023-02-22T05:16:58;30.13;;;13.00;;
48487;SDS011;34289;48.572;13.378;2023-02-22T05:19:24;25.52;;;11.70;;
48487;SDS011;34289;48.572;13.378;2023-02-22T05:21:50;31.75;;;12.13;;
48487;SDS011;34289;48.572;13.378;2023-02-22T05:24:15;42.60;;;11.68;;
48487;SDS011;34289;48.572;13.378;2023-02-22T05:26:42;44.22;;;11.35;;
48487;SDS011;34289;48.572;13.378;2023-02-22T05:29:08;34.75;;;11.05;;
48487;SDS011;34289;48.572;13.378;2023-02-22T05:31:34;43.28;;;12.32;;
48487;SDS011;34289;48.572;13.378;2023-02-22T05:33:59;39.85;;;11.98;;
48487;SDS011;34289;48.572;13.378;2023-02-22T05:36:25;37.13;;;11.43;;
48487;SDS011;34289;48.572;13.378;2023-02-22T05:38:52;55.00;;;12.05;;
48487;SDS011;34289;48.572;13.378;2023-02-22T05:41:18;35.85;;;12.32;;
48487;SDS011;34289;48.572;13.378;2023-02-22T05:43:43;49.97;;;13.18;;
48487;SDS011;34289;48.572;13.378;2023-02-22T05:46:09;37.38;;;12.57;;
48487;SDS011;34289;48.572;13.378;2023-02-22T05:48:35;29.98;;;13.50;;
48487;SDS011;34289;48.572;13.378;2023-02-22T05:51:00;64.47;;;14.52;;
48487;SDS011;34289;48.572;13.378;2023-02-22T05:53:27;47.83;;;13.57;;
48487;SDS011;34289;48.572;13.378;2023-02-22T05:55:53;34.10;;;13.15;;
48487;SDS011;34289;48.572;13.378;2023-02-22T05:58:19;45.65;;;12.93;;
48487;SDS011;34289;48.572;13.378;2023-02-22T06:00:45;50.30;;;12.80;;
48487;SDS011;34289;48.572;13.378;2023-02-22T06:03:11;33.97;;;12.32;;
48487;SDS011;34289;48.572;13.378;2023-02-22T06:05:37;33.30;;;11.73;;
48487;SDS011;34289;48.572;13.378;2023-02-22T06:08:03;42.67;;;13.07;;
48487;SDS011;34289;48.572;13.378;2023-02-22T06:10:30;34.47;;;14.32;;
48487;SDS011;34289;48.572;13.378;2023-02-22T06:12:56;62.95;;;13.63;;
48487;SDS011;34289;48.572;13.378;2023-02-22T06:15:23;47.13;;;14.57;;
48487;SDS011;34289;48.572;13.378;2023-02-22T06:17:49;56.00;;;14.98;;
48487;SDS011;34289;48.572;13.378;2023-02-22T06:20:17;61.55;;;16.88;;
48487;SDS011;34289;48.572;13.378;2023-02-22T06:22:51;53.35;;;16.23;;
48487;SDS011;34289;48.572;13.378;2023-02-22T06:25:19;67.55;;;13.40;;
48487;SDS011;34289;48.572;13.378;2023-02-22T06:27:47;40.15;;;13.07;;
48487;SDS011;34289;48.572;13.378;2023-02-22T06:30:15;53.03;;;13.93;;
48487;SDS011;34289;48.572;13.378;2023-02-22T06:32:43;54.30;;;12.80;;
48487;SDS011;34289;48.572;13.378;2023-02-22T06:35:08;68.90;;;14.70;;
48487;SDS011;34289;48.572;13.378;2023-02-22T06:37:34;62.95;;;14.18;;
48487;SDS011;34289;48.572;13.378;2023-02-22T06:40:00;70.07;;;14.15;;
48487;SDS011;34289;48.572;13.378;2023-02-22T06:42:25;84.93;;;14.27;;
48487;SDS011;34289;48.572;13.378;2023-02-22T06:44:51;87.72;;;14.77;;
48487;SDS011;34289;48.572;13.378;2023-02-22T06:47:17;117.07;;;14.18;;
48487;SDS011;34289;48.572;13.378;2023-02-22T06:49:42;95.93;;;15.65;;
48487;SDS011;34289;48.572;13.378;2023-02-22T06:52:08;59.65;;;13.95;;
48487;SDS011;34289;48.572;13.378;2023-02-22T06:54:34;100.38;;;16.38;;
48487;SDS011;34289;48.572;13.378;2023-02-22T06:57:01;59.40;;;13.88;;
48487;SDS011;34289;48.572;13.378;2023-02-22T06:59:26;93.25;;;13.75;;
48487;SDS011;34289;48.572;13.378;2023-02-22T07:01:52;86.90;;;14.00;;
48487;SDS011;34289;48.572;13.378;2023-02-22T07:04:18;74.35;;;12.73;;
48487;SDS011;34289;48.572;13.378;2023-02-22T07:06:45;66.03;;;12.00;;
48487;SDS011;34289;48.572;13.378;2023-02-22T07:09:11;44.55;;;12.32;;
48487;SDS011;34289;48.572;13.378;2023-02-22T07:11:38;35.55;;;10.38;;
48487;SDS011;34289;48.572;13.378;2023-02-22T07:14:04;37.40;;;10.30;;
48487;SDS011;34289;48.572;13.378;2023-02-22T07:16:30;22.30;;;9.10;;
48487;SDS011;34289;48.572;13.378;2023-02-22T07:18:56;10.38;;;8.95;;
48487;SDS011;34289;48.572;13.378;2023-02-22T07:21:21;18.73;;;9.02;;
48487;SDS011;34289;48.572;13.378;2023-02-22T07:23:54;33.45;;;10.43;;
48487;SDS011;34289;48.572;13.378;2023-02-22T07:26:21;46.03;;;11.38;;
48487;SDS011;34289;48.572;13.378;2023-02-22T07:28:47;52.83;;;9.82;;
48487;SDS011;34289;48.572;13.378;2023-02-22T07:31:13;39.75;;;10.02;;
48487;SDS011;34289;48.572;13.378;2023-02-22T07:33:38;53.80;;;9.75;;
48487;SDS011;34289;48.572;13.378;2023-02-22T07:36:04;81.65;;;9.63;;
48487;SDS011;34289;48.572;13.378;2023-02-22T07:38:30;70.93;;;10.43;;
48487;SDS011;34289;48.572;13.378;2023-02-22T07:40:56;87.07;;;9.30;;
48487;SDS011;34289;48.572;13.378;2023-02-22T07:43:23;46.45;;;8.18;;
48487;SDS011;34289;48.572;13.378;2023-02-22T07:45:51;56.53;;;7.72;;
48487;SDS011;34289;48.572;13.378;2023-02-22T07:48:19;40.85;;;7.68;;
48487;SDS011;34289;48.572;13.378;2023-02-22T07:50:47;11.85;;;6.00;;
48487;SDS011;34289;48.572;13.378;2023-02-22T07:53:19;29.13;;;6.90;;
48487;SDS011;34289;48.572;13.378;2023-02-22T07:55:49;25.23;;;6.47;;
48487;SDS011;34289;48.572;13.378;2023-02-22T07:58:16;35.05;;;5.90;;
48487;SDS011;34289;48.572;13.378;2023-02-22T08:00:44;11.75;;;6.65;;
48487;SDS011;34289;48.572;13.378;2023-02-22T08:03:13;13.88;;;5.00;;
48487;SDS011;34289;48.572;13.378;2023-02-22T08:05:41;13.30;;;5.97;;
48487;SDS011;34289;48.572;13.378;2023-02-22T08:08:09;8.52;;;5.85;;
48487;SDS011;34289;48.572;13.378;2023-02-22T08:10:35;13.85;;;6.95;;
48487;SDS011;34289;48.572;13.378;2023-02-22T08:13:01;7.60;;;6.80;;
48487;SDS011;34289;48.572;13.378;2023-02-22T08:15:29;7.72;;;6.72;;
48487;SDS011;34289;48.572;13.378;2023-02-22T08:17:58;7.70;;;6.50;;
48487;SDS011;34289;48.572;13.378;2023-02-22T08:20:25;6.10;;;5.50;;
48487;SDS011;34289;48.572;13.378;2023-02-22T08:22:52;6.03;;;5.47;;
48487;SDS011;34289;48.572;13.378;2023-02-22T08:25:19;5.90;;;5.32;;
48487;SDS011;34289;48.572;13.378;2023-02-22T08:27:46;6.45;;;5.80;;
48487;SDS011;34289;48.572;13.378;2023-02-22T08:30:13;5.97;;;5.13;;
48487;SDS011;34289;48.572;13.378;2023-02-22T08:32:46;6.00;;;5.40;;
48487;SDS011;34289;48.572;13.378;2023-02-22T08:35:12;6.40;;;5.10;;
48487;SDS011;34289;48.572;13.378;2023-02-22T08:37:43;7.50;;;5.32;;
48487;SDS011;34289;48.572;13.378;2023-02-22T08:40:11;5.68;;;5.18;;
48487;SDS011;34289;48.572;13.378;2023-02-22T08:42:37;7.50;;;4.95;;
48487;SDS011;34289;48.572;13.378;2023-02-22T08:45:03;5.10;;;4.60;;
48487;SDS011;34289;48.572;13.378;2023-02-22T08:47:28;6.53;;;5.93;;
48487;SDS011;34289;48.572;13.378;2023-02-22T08:49:54;5.40;;;5.00;;
48487;SDS011;34289;48.572;13.378;2023-02-22T08:52:20;5.97;;;5.47;;
48487;SDS011;34289;48.572;13.378;2023-02-22T08:54:46;6.47;;;5.97;;
48487;SDS011;34289;48.572;13.378;2023-02-22T08:57:12;6.45;;;5.95;;
48487;SDS011;34289;48.572;13.378;2023-02-22T08:59:38;5.55;;;5.15;;
48487;SDS011;34289;48.572;13.378;2023-02-22T09:02:03;5.70;;;5.30;;
48487;SDS011;34289;48.572;13.378;2023-02-22T09:04:29;5.95;;;5.50;;
48487;SDS011;34289;48.572;13.378;2023-02-22T09:06:58;6.80;;;6.15;;
48487;SDS011;34289;48.572;13.378;2023-02-22T09:09:23;6.97;;;6.28;;
48487;SDS011;34289;48.572;13.378;2023-02-22T09:11:49;7.25;;;6.53;;
48487;SDS011;34289;48.572;13.378;2023-02-22T09:14:15;7.65;;;7.05;;
48487;SDS011;34289;48.572;13.378;2023-02-22T09:16:42;7.63;;;7.03;;
48487;SDS011;34289;48.572;13.378;2023-02-22T09:19:08;9.15;;;8.45;;
48487;SDS011;34289;48.572;13.378;2023-02-22T09:21:34;8.95;;;8.00;;
48487;SDS011;34289;48.572;13.378;2023-02-22T09:24:00;9.32;;;8.63;;
48487;SDS011;34289;48.572;13.378;2023-02-22T09:26:32;9.95;;;9.15;;
48487;SDS011;34289;48.572;13.378;2023-02-22T09:28:59;9.32;;;8.52;;
48487;SDS011;34289;48.572;13.378;2023-02-22T09:31:24;9.98;;;9.18;;
48487;SDS011;34289;48.572;13.378;2023-02-22T09:33:50;9.10;;;8.30;;
48487;SDS011;34289;48.572;13.378;2023-02-22T09:36:16;9.10;;;8.40;;
48487;SDS011;34289;48.572;13.378;2023-02-22T09:38:41;9.63;;;8.63;;
48487;SDS011;34289;48.572;13.378;2023-02-22T09:41:22;9.43;;;8.68;;
48487;SDS011;34289;48.572;13.378;2023-02-22T09:46:46;8.50;;;7.80;;
48487;SDS011;34289;48.572;13.378;2023-02-22T09:57:17;8.38;;;7.65;;
48487;SDS011;34289;48.572;13.378;2023-02-22T10:00:00;8.65;;;7.93;;
48487;SDS011;34289;48.572;13.378;2023-02-22T10:05:31;10.43;;;9.43;;
48487;SDS011;34289;48.572;13.378;2023-02-22T10:08:05;8.85;;;8.10;;
48487;SDS011;34289;48.572;13.378;2023-02-22T10:10:37;8.80;;;8.07;;
48487;SDS011;34289;48.572;13.378;2023-02-22T10:13:24;9.02;;;8.13;;
48487;SDS011;34289;48.572;13.378;2023-02-22T10:16:01;10.10;;;8.82;;
48487;SDS011;34289;48.572;13.378;2023-02-22T10:21:29;8.60;;;8.00;;
48487;SDS011;34289;48.572;13.378;2023-02-22T10:24:09;8.98;;;8.38;;
48487;SDS011;34289;48.572;13.378;2023-02-22T10:27:06;9.85;;;8.98;;
48487;SDS011;34289;48.572;13.378;2023-02-22T10:29:43;9.65;;;8.82;;
48487;SDS011;34289;48.572;13.378;2023-02-22T10:32:28;9.43;;;8.52;;
48487;SDS011;34289;48.572;13.378;2023-02-22T10:34:59;8.68;;;8.00;;
48487;SDS011;34289;48.572;13.378;2023-02-22T10:37:30;8.35;;;7.60;;
48487;SDS011;34289;48.572;13.378;2023-02-22T10:40:01;9.27;;;8.07;;
48487;SDS011;34289;48.572;13.378;2023-02-22T10:42:46;7.93;;;7.32;;
48487;SDS011;34289;48.572;13.378;2023-02-22T10:45:18;7.90;;;7.30;;
48487;SDS011;34289;48.572;13.378;2023-02-22T10:47:44;7.50;;;7.00;;
48487;SDS011;34289;48.572;13.378;2023-02-22T10:50:11;7.03;;;6.53;;
48487;SDS011;34289;48.572;13.378;2023-02-22T10:52:38;8.27;;;7.65;;
48487;SDS011;34289;48.572;13.378;2023-02-22T10:55:04;8.75;;;7.95;;
48487;SDS011;34289;48.572;13.378;2023-02-22T10:57:36;8.18;;;7.57;;
48487;SDS011;34289;48.572;13.378;2023-02-22T11:00:16;7.75;;;7.25;;
48487;SDS011;34289;48.572;13.378;2023-02-22T11:08:29;8.93;;;8.18;;
48487;SDS011;34289;48.572;13.378;2023-02-22T11:10:59;8.40;;;7.80;;
48487;SDS011;34289;48.572;13.378;2023-02-22T11:13:28;9.57;;;8.68;;
48487;SDS011;34289;48.572;13.378;2023-02-22T11:15:59;12.23;;;8.13;;
48487;SDS011;34289;48.572;13.378;2023-02-22T11:18:31;11.30;;;8.43;;
48487;SDS011;34289;48.572;13.378;2023-02-22T11:21:05;9.88;;;8.93;;
48487;SDS011;34289;48.572;13.378;2023-02-22T11:23:34;8.95;;;8.23;;
48487;SDS011;34289;48.572;13.378;2023-02-22T11:26:11;9.52;;;8.80;;
48487;SDS011;34289;48.572;13.378;2023-02-22T11:28:41;9.32;;;8.52;;
48487;SDS011;34289;48.572;13.378;2023-02-22T11:31:19;9.05;;;8.45;;
48487;SDS011;34289;48.572;13.378;2023-02-22T11:33:58;9.65;;;8.95;;
48487;SDS011;34289;48.572;13.378;2023-02-22T11:36:33;10.13;;;9.23;;
48487;SDS011;34289;48.572;13.378;2023-02-22T11:39:05;9.52;;;8.82;;
48487;SDS011;34289;48.572;13.378;2023-02-22T11:41:49;10.75;;;9.73;;
48487;SDS011;34289;48.572;13.378;2023-02-22T11:44:22;10.73;;;9.90;;
48487;SDS011;34289;48.572;13.378;2023-02-22T11:46:56;10.32;;;9.50;;
48487;SDS011;34289;48.572;13.378;2023-02-22T11:49:31;10.73;;;9.95;;
48487;SDS011;34289;48.572;13.378;2023-02-22T12:18:06;8.77;;;8.18;;
48487;SDS011;34289;48.572;13.378;2023-02-22T12:20:45;9.50;;;8.80;;
48487;SDS011;34289;48.572;13.378;2023-02-22T12:23:19;9.57;;;8.77;;
48487;SDS011;34289;48.572;13.378;2023-02-22T12:26:14;9.13;;;8.38;;
48487;SDS011;34289;48.572;13.378;2023-02-22T12:28:50;9.60;;;8.77;;
48487;SDS011;34289;48.572;13.378;2023-02-22T12:31:41;9.68;;;8.73;;
48487;SDS011;34289;48.572;13.378;2023-02-22T12:42:49;9.85;;;9.05;;
48487;SDS011;34289;48.572;13.378;2023-02-22T12:48:23;9.30;;;8.60;;
48487;SDS011;34289;48.572;13.378;2023-02-22T12:50:46;9.65;;;8.95;;
48487;SDS011;34289;48.572;13.378;2023-02-22T12:53:18;9.23;;;8.35;;
48487;SDS011;34289;48.572;13.378;2023-02-22T12:55:53;9.82;;;8.93;;
48487;SDS011;34289;48.572;13.378;2023-02-22T13:01:27;9.45;;;8.65;;
48487;SDS011;34289;48.572;13.378;2023-02-22T13:03:59;10.02;;;8.98;;
48487;SDS011;34289;48.572;13.378;2023-02-22T13:06:42;9.10;;;8.25;;
48487;SDS011;34289;48.572;13.378;2023-02-22T13:14:52;9.15;;;8.07;;
48487;SDS011;34289;48.572;13.378;2023-02-22T13:20:21;8.60;;;7.95;;
48487;SDS011;34289;48.572;13.378;2023-02-22T13:28:01;9.20;;;8.55;;
48487;SDS011;34289;48.572;13.378;2023-02-22T13:30:38;8.85;;;8.07;;
48487;SDS011;34289;48.572;13.378;2023-02-22T13:33:10;8.82;;;8.18;;
48487;SDS011;34289;48.572;13.378;2023-02-22T13:50:04;8.70;;;8.10;;
48487;SDS011;34289;48.572;13.378;2023-02-22T13:52:43;8.88;;;8.18;;
48487;SDS011;34289;48.572;13.378;2023-02-22T13:55:16;8.30;;;7.70;;
48487;SDS011;34289;48.572;13.378;2023-02-22T13:57:45;8.32;;;7.55;;
48487;SDS011;34289;48.572;13.378;2023-02-22T14:00:23;9.13;;;8.15;;
48487;SDS011;34289;48.572;13.378;2023-02-22T14:08:03;7.82;;;7.32;;
48487;SDS011;34289;48.572;13.378;2023-02-22T14:10:34;8.20;;;7.60;;
48487;SDS011;34289;48.572;13.378;2023-02-22T14:13:13;8.38;;;7.68;;
48487;SDS011;34289;48.572;13.378;2023-02-22T14:18:28;8.98;;;8.18;;
48487;SDS011;34289;48.572;13.378;2023-02-22T14:21:10;9.15;;;8.32;;
48487;SDS011;34289;48.572;13.378;2023-02-22T14:26:08;8.93;;;7.80;;
48487;SDS011;34289;48.572;13.378;2023-02-22T14:28:41;8.80;;;8.00;;
48487;SDS011;34289;48.572;13.378;2023-02-22T14:31:28;8.95;;;8.23;;
48487;SDS011;34289;48.572;13.378;2023-02-22T14:42:04;9.07;;;8.18;;
48487;SDS011;34289;48.572;13.378;2023-02-22T14:44:41;8.50;;;7.80;;
48487;SDS011;34289;48.572;13.378;2023-02-22T14:47:21;9.60;;;8.77;;
48487;SDS011;34289;48.572;13.378;2023-02-22T14:49:53;8.98;;;8.27;;
48487;SDS011;34289;48.572;13.378;2023-02-22T14:52:25;8.60;;;7.85;;
48487;SDS011;34289;48.572;13.378;2023-02-22T14:55:11;8.35;;;7.50;;
48487;SDS011;34289;48.572;13.378;2023-02-22T15:02:47;8.50;;;7.70;;
48487;SDS011;34289;48.572;13.378;2023-02-22T15:05:16;8.52;;;7.80;;
48487;SDS011;34289;48.572;13.378;2023-02-22T15:07:55;7.68;;;7.13;;
48487;SDS011;34289;48.572;13.378;2023-02-22T15:12:55;9.25;;;7.82;;
48487;SDS011;34289;48.572;13.378;2023-02-22T15:15:44;8.57;;;7.97;;
48487;SDS011;34289;48.572;13.378;2023-02-22T15:18:16;8.63;;;7.88;;
48487;SDS011;34289;48.572;13.378;2023-02-22T15:20:57;7.73;;;7.13;;
48487;SDS011;34289;48.572;13.378;2023-02-22T15:23:29;8.50;;;7.80;;
48487;SDS011;34289;48.572;13.378;2023-02-22T15:28:44;10.20;;;9.18;;
48487;SDS011;34289;48.572;13.378;2023-02-22T15:31:15;8.63;;;7.90;;
48487;SDS011;34289;48.572;13.378;2023-02-22T15:33:49;8.05;;;7.28;;
48487;SDS011;34289;48.572;13.378;2023-02-22T15:36:17;8.00;;;7.30;;
48487;SDS011;34289;48.572;13.378;2023-02-22T15:38:48;9.93;;;7.50;;
48487;SDS011;34289;48.572;13.378;2023-02-22T15:41:19;7.82;;;7.13;;
48487;SDS011;34289;48.572;13.378;2023-02-22T15:44:05;7.68;;;6.88;;
48487;SDS011;34289;48.572;13.378;2023-02-22T15:46:32;9.10;;;6.32;;
48487;SDS011;34289;48.572;13.378;2023-02-22T15:51:40;8.18;;;6.90;;
48487;SDS011;34289;48.572;13.378;2023-02-22T15:54:07;9.13;;;7.07;;
48487;SDS011;34289;48.572;13.378;2023-02-22T15:56:39;8.13;;;7.50;;
48487;SDS011;34289;48.572;13.378;2023-02-22T15:59:12;10.70;;;7.15;;
48487;SDS011;34289;48.572;13.378;2023-02-22T16:01:42;8.60;;;7.60;;
48487;SDS011;34289;48.572;13.378;2023-02-22T16:04:15;9.82;;;7.18;;
48487;SDS011;34289;48.572;13.378;2023-02-22T16:06:44;8.18;;;6.20;;
48487;SDS011;34289;48.572;13.378;2023-02-22T16:09:12;17.70;;;11.88;;
48487;SDS011;34289;48.572;13.378;2023-02-22T16:11:42;44.50;;;26.50;;
48487;SDS011;34289;48.572;13.378;2023-02-22T16:20:28;111.25;;;53.13;;
48487;SDS011;34289;48.572;13.378;2023-02-22T16:22:48;84.65;;;40.65;;
48487;SDS011;34289;48.572;13.378;2023-02-22T16:27:53;91.30;;;39.08;;
48487;SDS011;34289;48.572;13.378;2023-02-22T16:30:27;98.90;;;44.55;;
48487;SDS011;34289;48.572;13.378;2023-02-22T16:32:58;93.65;;;43.05;;
48487;SDS011;34289;48.572;13.378;2023-02-22T16:35:29;67.30;;;34.45;;
48487;SDS011;34289;48.572;13.378;2023-02-22T16:40:30;91.93;;;44.40;;
48487;SDS011;34289;48.572;13.378;2023-02-22T16:45:28;130.10;;;65.53;;
48487;SDS011;34289;48.572;13.378;2023-02-22T16:47:54;109.47;;;55.03;;
48487;SDS011;34289;48.572;13.378;2023-02-22T16:50:20;79.53;;;40.28;;
48487;SDS011;34289;48.572;13.378;2023-02-22T16:52:47;60.55;;;30.10;;
48487;SDS011;34289;48.572;13.378;2023-02-22T16:55:15;59.13;;;30.52;;
48487;SDS011;34289;48.572;13.378;2023-02-22T16:57:44;60.30;;;30.23;;
48487;SDS011;34289;48.572;13.378;2023-02-22T17:00:13;50.03;;;25.77;;
48487;SDS011;34289;48.572;13.378;2023-02-22T17:02:41;32.97;;;20.33;;
48487;SDS011;34289;48.572;13.378;2023-02-22T17:05:11;35.15;;;20.60;;
48487;SDS011;34289;48.572;13.378;2023-02-22T17:07:38;27.30;;;17.55;;
48487;SDS011;34289;48.572;13.378;2023-02-22T17:10:04;15.40;;;10.43;;
48487;SDS011;34289;48.572;13.378;2023-02-22T17:12:30;12.45;;;8.07;;
48487;SDS011;34289;48.572;13.378;2023-02-22T17:14:56;8.02;;;5.93;;
48487;SDS011;34289;48.572;13.378;2023-02-22T17:17:22;6.45;;;4.35;;
48487;SDS011;34289;48.572;13.378;2023-02-22T17:19:47;6.63;;;4.22;;
48487;SDS011;34289;48.572;13.378;2023-02-22T17:22:17;7.88;;;3.95;;
48487;SDS011;34289;48.572;13.378;2023-02-22T17:24:44;6.70;;;3.55;;
48487;SDS011;34289;48.572;13.378;2023-02-22T17:27:10;7.95;;;3.83;;
48487;SDS011;34289;48.572;13.378;2023-02-22T17:29:36;4.95;;;4.20;;
48487;SDS011;34289;48.572;13.378;2023-02-22T17:32:02;7.95;;;4.13;;